Terminal Aerodrome Forecast
Issued by NWS

Home | Current Version | Previous Version | Graphics & Text | Print | Product List | Glossary On
Versions: 1 2 3 4 5 6 7 8 9 10 11 12 13 14 15 16 17 18 19 20 21 22 23
000
FTUS42 KMHX 242300 RRA
TAFOAJ
TAF
KOAJ 242354Z 2500/2524 21009KT P6SM SCT040 BKN080
     FM250300 21005KT 2SM BR VCSH OVC007
     FM251400 26007KT 5SM BR VCSH OVC015
     FM251700 29007KT 5SM BR VCSH OVC025
      AMD LTD TO CLD VIS AND WIND=

USA.gov is the U.S. government's official web portal to all federal, state and local government web resources and services.